createdAt,value
2023-07-22T00:00:31.017Z,97648.19
2023-07-22T00:02:59.028Z,97675.06
2023-07-22T00:05:27.096Z,97662.13
2023-07-22T00:07:56.204Z,97654.31
2023-07-22T00:10:23.946Z,97705.06
2023-07-22T00:12:52.128Z,97677.72
2023-07-22T00:15:21.574Z,97673.41
2023-07-22T00:17:49.473Z,97682.88
2023-07-22T00:20:17.733Z,97684.72
2023-07-22T00:22:45.495Z,97654.13
2023-07-22T00:25:14.884Z,97696.00
2023-07-22T00:27:44.752Z,97703.63
2023-07-22T00:30:13.058Z,97698.28
2023-07-22T00:32:42.341Z,97733.00
2023-07-22T00:35:11.335Z,97716.56
2023-07-22T00:37:39.103Z,97702.97
2023-07-22T00:40:13.198Z,97699.69
2023-07-22T00:42:42.805Z,97679.56
2023-07-22T00:45:10.798Z,97671.69
2023-07-22T00:47:39.153Z,97660.19
2023-07-22T00:50:09.822Z,97656.25
2023-07-22T00:52:37.804Z,97660.19
2023-07-22T00:55:07.091Z,97649.94
2023-07-22T00:57:34.950Z,97632.47
2023-07-22T01:00:05.926Z,97642.31
2023-07-22T01:02:35.818Z,97647.66
2023-07-22T01:05:03.895Z,97618.09
2023-07-22T01:07:31.661Z,97604.53
2023-07-22T01:10:00.335Z,97602.25
2023-07-22T01:12:28.129Z,97603.50
2023-07-22T01:14:56.025Z,97591.59
2023-07-22T01:17:25.900Z,97580.50
2023-07-22T01:19:55.087Z,97577.19
2023-07-22T01:22:24.894Z,97550.28
2023-07-22T01:24:54.625Z,97550.50
2023-07-22T01:27:22.479Z,97569.41
2023-07-22T01:29:53.545Z,97559.09
2023-07-22T01:32:22.131Z,97537.56
2023-07-22T01:34:49.944Z,97525.63
2023-07-22T01:37:17.733Z,97537.72
2023-07-22T01:39:45.570Z,97523.34
2023-07-22T01:42:14.720Z,97506.09
2023-07-22T01:44:42.646Z,97519.84
2023-07-22T01:47:10.471Z,97529.28
2023-07-22T01:49:38.249Z,97534.63
2023-07-22T01:52:06.907Z,97504.47
2023-07-22T01:54:34.628Z,97501.16
2023-07-22T01:57:02.393Z,97505.47
2023-07-22T01:59:31.597Z,97498.69
2023-07-22T02:01:59.402Z,97499.91
2023-07-22T02:04:27.528Z,97513.25
2023-07-22T02:06:55.573Z,97511.81
2023-07-22T02:09:23.390Z,97499.72
2023-07-22T02:11:51.160Z,97504.84
2023-07-22T02:14:18.961Z,97482.47
2023-07-22T02:16:48.366Z,97491.91
2023-07-22T02:19:16.671Z,97483.28
2023-07-22T02:21:44.484Z,97525.75
2023-07-22T02:24:12.551Z,97484.31
2023-07-22T02:26:40.399Z,97481.81
2023-07-22T02:29:14.100Z,97469.09
2023-07-22T02:31:46.138Z,97473.19
2023-07-22T02:34:17.638Z,97472.38
2023-07-22T02:36:45.774Z,97503.56
2023-07-22T02:39:13.612Z,97519.59
2023-07-22T02:41:41.701Z,97515.47
2023-07-22T02:44:10.186Z,97532.28
2023-07-22T02:46:38.197Z,97531.06
2023-07-22T02:49:06.341Z,97525.31
2023-07-22T02:51:35.555Z,97523.84
2023-07-22T02:54:04.773Z,97528.59
2023-07-22T02:56:32.675Z,97549.97
2023-07-22T02:59:00.484Z,97595.13
2023-07-22T03:01:28.419Z,97595.75
2023-07-22T03:03:56.214Z,97594.75
2023-07-22T03:06:24.020Z,97644.03
2023-07-22T03:08:55.549Z,97636.41
2023-07-22T03:11:26.137Z,97622.66
2023-07-22T03:13:54.721Z,97623.50
2023-07-22T03:16:22.652Z,97638.25
2023-07-22T03:18:50.462Z,97645.88
2023-07-22T03:21:19.313Z,97668.25
2023-07-22T03:23:47.164Z,97668.44
2023-07-22T03:26:16.645Z,97682.41
2023-07-22T03:28:44.486Z,97683.03
2023-07-22T03:31:12.414Z,97696.97
2023-07-22T03:33:41.156Z,97725.34
2023-07-22T03:36:09.009Z,97783.09
2023-07-22T03:38:37.056Z,97804.69
2023-07-22T03:41:05.204Z,97835.72
2023-07-22T03:43:34.346Z,97851.97
2023-07-22T03:46:02.179Z,97872.94
2023-07-22T03:48:30.039Z,97898.84
2023-07-22T03:51:12.116Z,97937.72
2023-07-22T03:53:44.598Z,97971.19
2023-07-22T03:56:12.345Z,97998.22
2023-07-22T03:58:41.465Z,98019.81
2023-07-22T04:01:09.287Z,98043.25
2023-07-22T04:03:37.283Z,98062.03
2023-07-22T04:06:05.617Z,98081.97
2023-07-22T04:08:33.683Z,98108.09
2023-07-22T04:11:01.474Z,98129.56
2023-07-22T04:13:29.474Z,98197.31
2023-07-22T04:15:58.690Z,98222.06
2023-07-22T04:18:26.587Z,98228.69
2023-07-22T04:20:58.530Z,98287.72
2023-07-22T04:23:26.846Z,98357.91
2023-07-22T04:25:54.814Z,98386.56
2023-07-22T04:28:22.662Z,98409.88
2023-07-22T04:30:59.457Z,98443.88
2023-07-22T04:33:28.154Z,98485.56
2023-07-22T04:35:57.731Z,98501.88
2023-07-22T04:38:25.545Z,98496.69
2023-07-22T04:40:53.660Z,98512.38
2023-07-22T04:43:23.252Z,98561.88
2023-07-22T04:45:51.379Z,98605.75
2023-07-22T04:48:24.307Z,98663.09
2023-07-22T04:50:52.226Z,98666.41
2023-07-22T04:53:20.298Z,98717.69
2023-07-22T04:55:48.235Z,98724.69
2023-07-22T04:58:16.051Z,98695.09
2023-07-22T05:00:44.565Z,98728.38
2023-07-22T05:03:12.636Z,98761.25
2023-07-22T05:05:41.970Z,98793.09
2023-07-22T05:08:09.902Z,98840.19
2023-07-22T05:10:39.094Z,98883.63
2023-07-22T05:13:06.964Z,98880.94
2023-07-22T05:15:34.755Z,98983.53
2023-07-22T05:18:02.633Z,98952.78
2023-07-22T05:20:30.460Z,99051.38
2023-07-22T05:23:00.978Z,99008.09
2023-07-22T05:25:28.834Z,99017.44
2023-07-22T05:27:56.695Z,99048.03
2023-07-22T05:30:34.115Z,99114.75
2023-07-22T05:33:02.581Z,99187.16
2023-07-22T05:35:31.138Z,99206.91
2023-07-22T05:38:00.530Z,99227.03
2023-07-22T05:40:28.394Z,99283.28
2023-07-22T05:42:56.322Z,99286.25
2023-07-22T05:45:24.143Z,99270.53
2023-07-22T05:47:51.976Z,99302.00
2023-07-22T05:50:19.792Z,99293.28
2023-07-22T05:52:48.952Z,99314.22
2023-07-22T05:55:18.269Z,99389.56
2023-07-22T05:57:46.065Z,99392.59
2023-07-22T06:00:15.156Z,99494.25
2023-07-22T06:02:43.236Z,99475.34
2023-07-22T06:05:11.170Z,99475.34
2023-07-22T06:07:39.015Z,99465.78
2023-07-22T06:10:08.207Z,99491.94
2023-07-22T06:12:38.119Z,99523.09
2023-07-22T06:15:06.745Z,99563.31
2023-07-22T06:17:34.822Z,99548.38
2023-07-22T06:20:03.557Z,99570.00
2023-07-22T06:22:31.288Z,99637.25
2023-07-22T06:24:59.252Z,99668.81
2023-07-22T06:27:27.177Z,99741.13
2023-07-22T06:29:56.360Z,99713.28
2023-07-22T06:32:24.342Z,99719.16
2023-07-22T06:34:52.238Z,99712.41
2023-07-22T06:37:20.105Z,99873.72
2023-07-22T06:39:47.893Z,100025.91
2023-07-22T06:42:15.893Z,100172.53
2023-07-22T06:44:43.731Z,100303.09
2023-07-22T06:47:12.878Z,100259.34
2023-07-22T06:49:42.060Z,100139.44
2023-07-22T06:52:10.866Z,99876.59
2023-07-22T06:54:38.668Z,99840.81
2023-07-22T06:57:07.331Z,99949.78
2023-07-22T06:59:35.202Z,100002.22
2023-07-22T07:02:05.851Z,100048.44
2023-07-22T07:04:35.377Z,100010.13
2023-07-22T07:07:03.749Z,99952.66
2023-07-22T07:09:31.581Z,99863.31
2023-07-22T07:11:59.383Z,99783.06
2023-07-22T07:14:27.141Z,99706.56
2023-07-22T07:16:55.077Z,99806.72
2023-07-22T07:19:23.194Z,99845.88
2023-07-22T07:21:52.341Z,99791.81
2023-07-22T07:24:20.195Z,99760.59
2023-07-22T07:26:48.352Z,99756.91
2023-07-22T07:29:32.903Z,99920.75
2023-07-22T07:32:04.423Z,100051.13
2023-07-22T07:34:32.340Z,100218.16
2023-07-22T07:37:01.457Z,100303.09
2023-07-22T07:39:29.257Z,100363.53
2023-07-22T07:41:57.139Z,100490.19
2023-07-22T07:44:25.089Z,100456.31
2023-07-22T07:46:52.875Z,100406.31
2023-07-22T07:49:20.740Z,100329.22
2023-07-22T07:51:48.709Z,100240.34
2023-07-22T07:54:18.132Z,100363.38
2023-07-22T07:56:45.961Z,100454.63
2023-07-22T07:59:13.793Z,100478.91
2023-07-22T08:01:43.124Z,100461.41
2023-07-22T08:04:11.838Z,100451.94
2023-07-22T08:06:39.833Z,100513.97
2023-07-22T08:09:07.593Z,100628.59
2023-07-22T08:11:36.740Z,100705.16
2023-07-22T08:14:04.725Z,100635.84
2023-07-22T08:16:32.567Z,100570.25
2023-07-22T08:19:00.334Z,100610.41
2023-07-22T08:21:28.092Z,100706.84
2023-07-22T08:23:56.006Z,100760.31
2023-07-22T08:26:23.782Z,100833.38
2023-07-22T08:28:52.881Z,100879.63
2023-07-22T08:31:20.668Z,100777.84
2023-07-22T08:33:48.612Z,100718.16
2023-07-22T08:36:16.659Z,100763.84
2023-07-22T08:38:44.520Z,100719.00
2023-07-22T08:41:17.174Z,100638.38
2023-07-22T08:43:47.172Z,100708.53
2023-07-22T08:46:17.945Z,100736.88
2023-07-22T08:48:49.721Z,100746.84
2023-07-22T08:51:19.442Z,100841.84
2023-07-22T08:54:00.895Z,100925.09
2023-07-22T08:56:37.090Z,100946.91
2023-07-22T08:59:07.066Z,101058.53
2023-07-22T09:01:37.151Z,101041.81
2023-07-22T09:04:05.975Z,101018.31
2023-07-22T09:06:34.655Z,101150.69
2023-07-22T09:09:08.004Z,101363.88
2023-07-22T09:11:37.117Z,101468.66
2023-07-22T09:14:05.349Z,101407.88
2023-07-22T09:16:34.431Z,101355.38
2023-07-22T09:19:05.673Z,101480.03
2023-07-22T09:21:36.920Z,101727.66
2023-07-22T09:24:22.835Z,101916.50
2023-07-22T09:26:50.978Z,102138.19
2023-07-22T09:29:19.256Z,102192.22
2023-07-22T09:31:54.487Z,102263.81
2023-07-22T09:34:24.009Z,102464.09
2023-07-22T09:36:54.231Z,102549.06
2023-07-22T09:39:22.240Z,102369.31
2023-07-22T09:41:50.253Z,102392.28
2023-07-22T09:44:18.322Z,102613.94
2023-07-22T09:46:50.135Z,102961.53
2023-07-22T09:49:19.834Z,103350.91
2023-07-22T09:52:01.939Z,103562.28
2023-07-22T09:54:31.961Z,103941.34
2023-07-22T09:57:00.450Z,104130.00
2023-07-22T09:59:31.318Z,104026.13
2023-07-22T10:02:03.731Z,103718.19
2023-07-22T10:04:35.719Z,103866.97
2023-07-22T10:07:06.008Z,103748.50
2023-07-22T10:09:37.577Z,103613.72
2023-07-22T10:12:05.924Z,103350.50
2023-07-22T10:14:36.987Z,103472.47
2023-07-22T10:17:07.419Z,103119.94
2023-07-22T10:19:35.353Z,103302.00
2023-07-22T10:22:05.822Z,103905.59
2023-07-22T10:24:45.431Z,104256.06
2023-07-22T10:27:14.149Z,104626.72
2023-07-22T10:29:42.117Z,104944.31
2023-07-22T10:32:10.219Z,105540.44
2023-07-22T10:34:38.004Z,105621.63
2023-07-22T10:37:07.520Z,105288.41
2023-07-22T10:39:35.348Z,104380.94
2023-07-22T10:42:05.580Z,104087.28
2023-07-22T10:44:34.783Z,104247.34
2023-07-22T10:47:04.773Z,104950.75
2023-07-22T10:49:46.241Z,105026.91
2023-07-22T10:52:15.888Z,104525.41
2023-07-22T10:54:43.822Z,104239.59
2023-07-22T10:57:30.302Z,103989.00
2023-07-22T10:59:58.536Z,104377.91
2023-07-22T11:02:27.875Z,104719.38
2023-07-22T11:04:59.589Z,104976.84
2023-07-22T11:07:36.629Z,105364.94
2023-07-22T11:10:17.455Z,105478.66
2023-07-22T11:12:46.845Z,104707.44
2023-07-22T11:15:17.532Z,103992.94
2023-07-22T11:17:45.396Z,104008.66
2023-07-22T11:20:13.383Z,104564.09
2023-07-22T11:22:44.845Z,104595.56
2023-07-22T11:25:19.257Z,104698.44
2023-07-22T11:27:47.587Z,104675.19
2023-07-22T11:30:15.558Z,105300.81
2023-07-22T11:32:45.589Z,105834.56
2023-07-22T11:35:13.429Z,105919.16
2023-07-22T11:37:43.229Z,106064.28
2023-07-22T11:40:15.073Z,106041.63
2023-07-22T11:42:43.044Z,106381.16
2023-07-22T11:45:11.511Z,106679.97
2023-07-22T11:47:39.651Z,106464.31
2023-07-22T11:50:08.869Z,106109.81
2023-07-22T11:52:36.704Z,106050.81
2023-07-22T11:55:06.623Z,106194.28
2023-07-22T11:57:34.467Z,105518.38
2023-07-22T12:00:02.316Z,104708.44
2023-07-22T12:02:31.041Z,104277.25
2023-07-22T12:05:01.421Z,103656.25
2023-07-22T12:07:30.900Z,103125.28
2023-07-22T12:10:01.008Z,103238.00
2023-07-22T12:12:37.340Z,103990.31
2023-07-22T12:15:07.767Z,104441.28
2023-07-22T12:17:49.662Z,104749.97
2023-07-22T12:20:18.246Z,105141.03
2023-07-22T12:22:46.742Z,105173.84
2023-07-22T12:25:15.174Z,105565.88
2023-07-22T12:27:45.813Z,105855.53
2023-07-22T12:30:13.846Z,106122.63
2023-07-22T12:32:41.737Z,106132.53
2023-07-22T12:35:10.063Z,105322.84
2023-07-22T12:37:38.359Z,105606.25
2023-07-22T12:40:09.666Z,106041.59
2023-07-22T12:42:38.110Z,106343.47
2023-07-22T12:45:09.071Z,106991.09
2023-07-22T12:47:38.214Z,107175.53
2023-07-22T12:50:08.803Z,106758.75
2023-07-22T12:52:36.788Z,106108.00
2023-07-22T12:55:05.225Z,105382.72
2023-07-22T12:57:32.979Z,104819.97
2023-07-22T13:00:00.743Z,104406.13
2023-07-22T13:02:29.943Z,104006.53
2023-07-22T13:04:57.989Z,103722.31
2023-07-22T13:07:25.801Z,104418.16
2023-07-22T13:09:57.664Z,105411.97
2023-07-22T13:12:25.525Z,106073.00
2023-07-22T13:14:53.343Z,106519.81
2023-07-22T13:17:21.116Z,106756.25
2023-07-22T13:19:50.215Z,105620.25
2023-07-22T13:22:18.115Z,104702.00
2023-07-22T13:24:46.004Z,104095.47
2023-07-22T13:27:13.901Z,104170.28
2023-07-22T13:29:41.640Z,103678.19
2023-07-22T13:32:10.070Z,103399.16
2023-07-22T13:34:37.906Z,103117.78
2023-07-22T13:37:07.725Z,102691.09
2023-07-22T13:39:35.763Z,102537.06
2023-07-22T13:42:03.724Z,103167.06
2023-07-22T13:44:32.025Z,103687.97
2023-07-22T13:46:59.982Z,103659.50
2023-07-22T13:49:27.940Z,103575.53
2023-07-22T13:51:55.773Z,103553.09
2023-07-22T13:54:24.950Z,103340.28
2023-07-22T13:56:52.764Z,103104.25
2023-07-22T13:59:20.528Z,103673.91
2023-07-22T14:01:48.349Z,104483.59
2023-07-22T14:04:16.172Z,104916.75
2023-07-22T14:06:43.913Z,105286.25
2023-07-22T14:09:11.717Z,105198.84
2023-07-22T14:11:42.739Z,104902.44
2023-07-22T14:14:10.630Z,104580.22
2023-07-22T14:16:38.532Z,104506.69
2023-07-22T14:19:06.415Z,104603.19
2023-07-22T14:21:34.176Z,104492.69
2023-07-22T14:24:02.055Z,104412.16
2023-07-22T14:26:29.883Z,103806.22
2023-07-22T14:28:59.029Z,103519.63
2023-07-22T14:31:27.415Z,103335.19
2023-07-22T14:33:55.454Z,103348.25
2023-07-22T14:36:23.306Z,103828.38
2023-07-22T14:38:51.057Z,103916.22
2023-07-22T14:41:18.951Z,103082.53
2023-07-22T14:43:46.743Z,102530.16
2023-07-22T14:46:16.107Z,102182.38
2023-07-22T14:48:46.184Z,102261.88
2023-07-22T14:51:14.033Z,102368.69
2023-07-22T14:53:42.183Z,102785.06
2023-07-22T14:56:10.040Z,102515.56
2023-07-22T14:58:37.817Z,102297.81
2023-07-22T15:01:05.645Z,101839.16
2023-07-22T15:03:34.816Z,101508.44
2023-07-22T15:06:02.695Z,101202.13
2023-07-22T15:08:30.547Z,100979.66
2023-07-22T15:10:58.556Z,100779.78
2023-07-22T15:13:26.484Z,100679.63
2023-07-22T15:15:56.022Z,100585.97
2023-07-22T15:18:24.037Z,100492.03
2023-07-22T15:20:54.226Z,100371.19
2023-07-22T15:23:24.713Z,100262.66
2023-07-22T15:25:53.124Z,100205.78
2023-07-22T15:28:21.862Z,100160.34
2023-07-22T15:30:49.752Z,100066.09
2023-07-22T15:33:17.973Z,100021.34
2023-07-22T15:35:45.799Z,100080.56
2023-07-22T15:38:15.008Z,100099.06
2023-07-22T15:40:42.854Z,100174.97
2023-07-22T15:43:10.816Z,100287.59
2023-07-22T15:45:38.808Z,100401.19
2023-07-22T15:48:07.111Z,100632.56
2023-07-22T15:50:35.027Z,100807.81
2023-07-22T15:53:02.956Z,101076.78
2023-07-22T15:55:32.267Z,101360.34
2023-07-22T15:58:00.157Z,101307.50
2023-07-22T16:00:27.975Z,101120.25
2023-07-22T16:02:55.924Z,100992.69
2023-07-22T16:05:24.164Z,100839.25
2023-07-22T16:07:51.967Z,100764.75
2023-07-22T16:10:19.876Z,100715.63
2023-07-22T16:12:48.993Z,100703.44
2023-07-22T16:15:16.882Z,100763.56
2023-07-22T16:17:44.993Z,100849.72
2023-07-22T16:20:13.714Z,100863.72
2023-07-22T16:22:41.575Z,100838.22
2023-07-22T16:25:10.511Z,100753.09
2023-07-22T16:27:38.272Z,100659.41
2023-07-22T16:30:09.780Z,100590.03
2023-07-22T16:32:37.694Z,100542.13
2023-07-22T16:35:07.632Z,100509.06
2023-07-22T16:37:35.834Z,100376.41
2023-07-22T16:40:05.559Z,100199.19
2023-07-22T16:42:33.368Z,100170.06
2023-07-22T16:45:01.465Z,100218.84
2023-07-22T16:47:30.653Z,100257.28
2023-07-22T16:49:58.556Z,100231.31
2023-07-22T16:52:26.483Z,100168.38
2023-07-22T16:54:54.227Z,100122.13
2023-07-22T16:57:21.963Z,100114.16
2023-07-22T16:59:49.881Z,100096.69
2023-07-22T17:02:17.712Z,100119.56
2023-07-22T17:04:46.886Z,100150.03
2023-07-22T17:07:16.054Z,100135.41
2023-07-22T17:09:43.890Z,100075.00
2023-07-22T17:12:11.716Z,100011.09
2023-07-22T17:14:39.520Z,99912.53
2023-07-22T17:17:07.978Z,99874.03
2023-07-22T17:19:35.759Z,99774.78
2023-07-22T17:22:05.403Z,99726.91
2023-07-22T17:24:33.293Z,99694.50
2023-07-22T17:27:01.140Z,99676.56
2023-07-22T17:29:29.054Z,99657.91
2023-07-22T17:31:56.857Z,99603.75
2023-07-22T17:34:24.698Z,99605.06
2023-07-22T17:36:52.467Z,99582.25
2023-07-22T17:39:21.574Z,99589.28
2023-07-22T17:41:49.391Z,99556.41
2023-07-22T17:44:18.774Z,99575.19
2023-07-22T17:46:46.641Z,99610.06
2023-07-22T17:49:14.578Z,99590.97
2023-07-22T17:51:42.326Z,99597.19
2023-07-22T17:54:10.380Z,99610.06
2023-07-22T17:56:39.590Z,99604.69
2023-07-22T17:59:07.392Z,99607.56
2023-07-22T18:01:35.417Z,99633.38
2023-07-22T18:04:03.324Z,99708.25
2023-07-22T18:06:32.258Z,99718.00
2023-07-22T18:09:00.098Z,99721.53
2023-07-22T18:11:28.296Z,99682.25
2023-07-22T18:13:58.532Z,99695.34
2023-07-22T18:16:26.578Z,99704.91
2023-07-22T18:18:54.728Z,99707.28
2023-07-22T18:21:25.971Z,99689.47
2023-07-22T18:23:54.038Z,99685.28
2023-07-22T18:26:21.841Z,99685.28
2023-07-22T18:28:49.681Z,99689.47
2023-07-22T18:31:21.004Z,99678.25
2023-07-22T18:33:50.099Z,99688.66
2023-07-22T18:36:18.028Z,99694.69
2023-07-22T18:38:46.423Z,99652.03
2023-07-22T18:41:14.679Z,99614.44
2023-07-22T18:43:42.448Z,99615.47
2023-07-22T18:46:17.895Z,99612.94
2023-07-22T18:48:47.737Z,99584.09
2023-07-22T18:51:16.176Z,99563.13
2023-07-22T18:53:44.090Z,99570.16
2023-07-22T18:56:11.855Z,99542.63
2023-07-22T18:58:39.616Z,99540.97
2023-07-22T19:01:07.489Z,99528.53
2023-07-22T19:03:35.378Z,99496.34
2023-07-22T19:06:04.676Z,99483.28
2023-07-22T19:08:32.577Z,99459.63
2023-07-22T19:11:00.399Z,99434.66
2023-07-22T19:13:28.150Z,99405.16
2023-07-22T19:15:56.585Z,99372.81
2023-07-22T19:18:24.414Z,99317.72
2023-07-22T19:21:00.014Z,99308.66
2023-07-22T19:23:30.102Z,99253.72
2023-07-22T19:25:58.897Z,99234.66
2023-07-22T19:28:26.885Z,99191.81
2023-07-22T19:30:55.724Z,99187.75
2023-07-22T19:33:23.634Z,99148.56
2023-07-22T19:36:01.523Z,99133.84
2023-07-22T19:38:31.123Z,99126.81
2023-07-22T19:41:06.724Z,99085.31
2023-07-22T19:43:34.826Z,99069.59
2023-07-22T19:46:04.274Z,99031.66
2023-07-22T19:48:33.429Z,98982.13
2023-07-22T19:51:01.754Z,98969.28
2023-07-22T19:53:31.171Z,98925.19
2023-07-22T19:56:00.705Z,98891.44
2023-07-22T19:58:28.582Z,98861.66
2023-07-22T20:00:58.657Z,98829.75
2023-07-22T20:03:26.549Z,98789.22
2023-07-22T20:05:55.102Z,98751.72
2023-07-22T20:08:23.051Z,98738.72
2023-07-22T20:10:52.937Z,98731.69
2023-07-22T20:13:21.404Z,98730.03
2023-07-22T20:15:50.570Z,98707.50
2023-07-22T20:18:18.456Z,98693.66
2023-07-22T20:20:46.279Z,98674.63
2023-07-22T20:23:14.047Z,98672.97
2023-07-22T20:25:42.014Z,98651.44
2023-07-22T20:28:11.185Z,98641.94
2023-07-22T20:30:39.101Z,98646.91
2023-07-22T20:33:06.975Z,98640.91
2023-07-22T20:35:34.878Z,98636.56
2023-07-22T20:38:02.895Z,98628.25
2023-07-22T20:40:30.746Z,98619.59
2023-07-22T20:42:58.585Z,98608.25
2023-07-22T20:45:27.748Z,98596.06
2023-07-22T20:47:55.847Z,98585.72
2023-07-22T20:50:23.724Z,98589.22
2023-07-22T20:52:51.514Z,98569.22
2023-07-22T20:55:19.357Z,98550.00
2023-07-22T20:57:47.225Z,98566.72
2023-07-22T21:00:15.741Z,98569.22
2023-07-22T21:02:44.940Z,98556.38
2023-07-22T21:05:13.145Z,98552.19
2023-07-22T21:07:41.369Z,98539.84
2023-07-22T21:10:10.603Z,98543.53
2023-07-22T21:12:38.413Z,98535.69
2023-07-22T21:15:07.401Z,98532.38
2023-07-22T21:17:35.182Z,98526.38
2023-07-22T21:20:04.810Z,98535.06
2023-07-22T21:22:32.929Z,98522.88
2023-07-22T21:25:00.718Z,98565.44
2023-07-22T21:27:34.533Z,98524.91
2023-07-22T21:30:11.478Z,98515.88
2023-07-22T21:32:39.305Z,98509.03
2023-07-22T21:35:09.139Z,98484.44
2023-07-22T21:37:36.978Z,98469.38
2023-07-22T21:40:06.508Z,98467.09
2023-07-22T21:42:34.303Z,98463.41
2023-07-22T21:45:02.900Z,98445.56
2023-07-22T21:47:30.720Z,98426.59
2023-07-22T21:49:58.729Z,98398.56
2023-07-22T21:52:27.904Z,98400.59
2023-07-22T21:54:55.870Z,98377.09
2023-07-22T21:57:23.708Z,98375.44
2023-07-22T21:59:51.505Z,98357.47
2023-07-22T22:02:19.464Z,98341.94
2023-07-22T22:04:47.422Z,98327.91
2023-07-22T22:07:15.322Z,98321.28
2023-07-22T22:09:44.549Z,98305.63
2023-07-22T22:12:12.498Z,98306.66
2023-07-22T22:14:40.346Z,98293.66
2023-07-22T22:17:08.243Z,98278.00
2023-07-22T22:19:36.023Z,98289.31
2023-07-22T22:22:03.802Z,98283.34
2023-07-22T22:24:33.182Z,98288.69
2023-07-22T22:27:02.463Z,98270.53
2023-07-22T22:29:30.497Z,98261.06
2023-07-22T22:31:58.290Z,98260.03
2023-07-22T22:34:26.116Z,98266.22
2023-07-22T22:36:53.924Z,98284.53
2023-07-22T22:39:21.718Z,98287.03
2023-07-22T22:41:49.550Z,98272.19
2023-07-22T22:44:18.686Z,98271.38
2023-07-22T22:46:48.402Z,98267.22
2023-07-22T22:49:16.326Z,98274.41
2023-07-22T22:51:44.097Z,98273.41
2023-07-22T22:54:11.963Z,98305.56
2023-07-22T22:56:39.787Z,98311.34
2023-07-22T22:59:10.519Z,98307.03
2023-07-22T23:01:40.296Z,98342.69
2023-07-22T23:04:08.115Z,98331.16
2023-07-22T23:06:35.900Z,98346.38
2023-07-22T23:09:03.770Z,98343.88
2023-07-22T23:11:31.579Z,98364.34
2023-07-22T23:13:59.999Z,98357.97
2023-07-22T23:16:28.113Z,98367.69
2023-07-22T23:18:57.310Z,98388.06
2023-07-22T23:21:25.069Z,98408.34
2023-07-22T23:23:52.933Z,98443.38
2023-07-22T23:26:20.739Z,98424.41
2023-07-22T23:28:48.545Z,98432.25
2023-07-22T23:31:16.676Z,98440.91
2023-07-22T23:33:44.506Z,98438.41
2023-07-22T23:36:13.704Z,98459.91
2023-07-22T23:38:41.491Z,98464.03
2023-07-22T23:41:09.755Z,98450.41
2023-07-22T23:43:37.669Z,98454.53
2023-07-22T23:46:05.438Z,98459.06
2023-07-22T23:48:33.859Z,98479.06
2023-07-22T23:51:01.652Z,98485.06
2023-07-22T23:53:30.780Z,98514.56
2023-07-22T23:55:58.665Z,98507.75
2023-07-22T23:58:26.436Z,98507.41
